LSMD

Dubendorf Airport

Airport
ICAO code
LSMD
Summary
ICAO Region
EUR
ICAO Territory
Location

Dübendorf, Zurich

Serving
Dübendorf
Elevation
1470 ft
Coordinates
47° 23' 55" N , 8° 38' 54" E
Metar
LSMD 140520Z VRB03KT 9999 FEW047 SCT060 BKN077 15/09 Q1014 RMK BLU

Militärflugplatz Dübendorf is a military airfield northeast of Dübendorf in Switzerland, located east of Zürich.

Climatology

Temperate oceanic climate (Köppen climate classification Cfb)

Runways

Designator Length Width Surface Rops
11R/29L 649 30 GRS No/No
11/29 2355 40 ASP No/No

Airport map

Aerial View

SKYbrary Partners:

Safety knowledge contributed by: